Time;durP1;ratioP1;P1;durP2;ratioP2;P2;SDS_P1;SDS_P2;PMS_P1;PMS_P2;Temp;Humidity;BMP_temperature;BMP_pressure;BME280_temperature;BME280_humidity;BME280_pressure;Samples;Min_cycle;Max_cycle;Signal;HPM_P1;HPM_P2
2023/05/17 00:00:54;;;;;;;;;;;;;;;8.22;86.68;102401.34;5056197;28;1202;-73
2023/05/17 00:03:19;;;;;;;;;;;;;;;8.19;86.53;102401.47;5055178;28;1948;-73
2023/05/17 00:05:44;;;;;;;;;;;;;;;8.14;86.57;102398.25;5064859;28;1029;-73
2023/05/17 00:08:10;;;;;;;;;;;;;;;8.14;86.80;102408.56;5040828;28;1216;-73
2023/05/17 00:10:35;;;;;;;;;;;;;;;8.09;87.42;102410.56;5063778;28;1089;-74
2023/05/17 00:13:00;;;;;;;;;;;;;;;8.08;87.27;102408.88;5056437;28;1105;-73
2023/05/17 00:15:25;;;;;;;;;;;;;;;8.09;86.86;102410.56;5059298;28;1294;-73
2023/05/17 00:17:51;;;;;;;;;;;;;;;8.11;87.26;102413.91;5057254;28;1208;-74
2023/05/17 00:20:16;;;;;;;;;;;;;;;8.13;87.39;102414.66;5049565;28;1343;-73
2023/05/17 00:22:42;;;;;;;;;;;;;;;8.13;87.47;102406.91;5060599;28;1167;-72
2023/05/17 00:25:07;;;;;;;;;;;;;;;8.14;87.61;102413.75;5060249;28;1993;-72
2023/05/17 00:27:32;;;;;;;;;;;;;;;8.10;87.16;102407.91;5062788;28;1153;-73
2023/05/17 00:29:58;;;;;;;;;;;;;;;8.08;87.67;102393.34;5064132;28;1239;-73
2023/05/17 00:32:23;;;;;;;;;;;;;;;8.04;87.39;102394.44;5061893;28;1062;-73
2023/05/17 00:34:48;;;;;;;;;;;;;;;8.01;88.10;102397.13;5046530;28;1294;-72
2023/05/17 00:37:13;;;;;;;;;;;;;;;8.02;87.42;102396.22;5041980;28;1373;-72
2023/05/17 00:39:38;;;;;;;;;;;;;;;8.00;87.31;102401.47;5066716;28;1316;-73
2023/05/17 00:42:04;;;;;;;;;;;;;;;7.97;87.92;102402.47;5064446;28;993;-72
2023/05/17 00:44:30;;;;;;;;;;;;;;;7.93;87.53;102406.09;5067987;28;1922;-73
2023/05/17 00:46:56;;;;;;;;;;;;;;;7.91;89.62;102400.16;5056774;28;1173;-73
2023/05/17 00:49:21;;;;;;;;;;;;;;;7.88;88.67;102407.19;5068106;28;1088;-73
2023/05/17 00:51:47;;;;;;;;;;;;;;;7.87;89.10;102401.19;5053165;28;1148;-73
2023/05/17 00:54:13;;;;;;;;;;;;;;;7.83;88.94;102404.81;5066742;28;1179;-72
2023/05/17 00:56:38;;;;;;;;;;;;;;;7.83;89.77;102403.97;5049279;28;1281;-74
2023/05/17 00:59:04;;;;;;;;;;;;;;;7.85;89.29;102408.16;5067163;28;1086;-72
2023/05/17 01:01:29;;;;;;;;;;;;;;;7.81;88.92;102416.97;5064185;28;1097;-72
2023/05/17 01:03:55;;;;;;;;;;;;;;;7.83;89.04;102414.31;5063111;28;1906;-73
2023/05/17 01:06:20;;;;;;;;;;;;;;;7.83;90.04;102409.97;5055799;28;1151;-73
2023/05/17 01:08:46;;;;;;;;;;;;;;;7.82;88.96;102405.72;5066872;28;1134;-73
2023/05/17 01:11:14;;;;;;;;;;;;;;;7.82;89.17;102408.31;5065782;28;1078;-73
2023/05/17 01:13:41;;;;;;;;;;;;;;;7.79;91.03;102407.59;5060447;28;1400;-72
2023/05/17 01:16:12;;;;;;;;;;;;;;;7.77;90.23;102399.94;5067837;28;1090;-72
2023/05/17 01:18:40;;;;;;;;;;;;;;;7.78;90.54;102411.09;5062317;28;1192;-73
2023/05/17 01:21:16;;;;;;;;;;;;;;;7.78;90.10;102411.94;5066557;28;1091;-73
2023/05/17 01:23:54;;;;;;;;;;;;;;;7.77;90.30;102402.50;5060670;28;1898;-74
2023/05/17 01:26:33;;;;;;;;;;;;;;;7.77;91.13;102399.94;5071218;28;1117;-73
2023/05/17 01:28:59;;;;;;;;;;;;;;;7.77;90.37;102396.50;5039462;28;1172;-73
2023/05/17 01:31:25;;;;;;;;;;;;;;;7.79;90.22;102395.50;5069571;28;959;-73
2023/05/17 01:33:50;;;;;;;;;;;;;;;7.80;90.46;102392.06;5062122;28;1105;-73
2023/05/17 01:36:15;;;;;;;;;;;;;;;7.82;90.30;102400.56;5069261;28;1156;-72
2023/05/17 01:38:40;;;;;;;;;;;;;;;7.81;90.61;102395.47;5065102;28;1177;-72
2023/05/17 01:41:24;;;;;;;;;;;;;;;7.81;91.09;102391.13;5065903;28;1252;-72
2023/05/17 01:43:56;;;;;;;;;;;;;;;7.78;90.91;102388.69;5063155;28;1969;-72
2023/05/17 01:46:30;;;;;;;;;;;;;;;7.78;90.69;102387.84;5069595;28;1105;-72
2023/05/17 01:49:08;;;;;;;;;;;;;;;7.77;90.45;102389.59;5056092;28;1675;-72
2023/05/17 01:51:38;;;;;;;;;;;;;;;7.73;90.91;102390.63;5068678;28;1472;-73
2023/05/17 01:54:10;;;;;;;;;;;;;;;7.72;91.22;102391.53;5063446;28;987;-72
2023/05/17 01:56:35;;;;;;;;;;;;;;;7.71;91.35;102380.38;5066600;28;973;-74
2023/05/17 01:59:03;;;;;;;;;;;;;;;7.74;91.38;102394.88;5069817;28;1213;-72
2023/05/17 02:01:29;;;;;;;;;;;;;;;7.74;91.26;102389.72;5055838;28;1346;-72
2023/05/17 02:03:54;;;;;;;;;;;;;;;7.76;91.34;102397.41;5070596;28;1898;-72
2023/05/17 02:06:20;;;;;;;;;;;;;;;7.70;92.19;102389.03;5069919;28;1081;-73
2023/05/17 02:08:45;;;;;;;;;;;;;;;7.72;91.63;102386.38;5044826;28;1286;-72
2023/05/17 02:11:10;;;;;;;;;;;;;;;7.70;91.86;102394.19;5063192;28;1001;-72
2023/05/17 02:13:35;;;;;;;;;;;;;;;7.74;92.86;102394.88;5035929;28;1463;-73
2023/05/17 02:16:01;;;;;;;;;;;;;;;7.75;91.80;102391.41;5058945;28;1136;-73
2023/05/17 02:18:27;;;;;;;;;;;;;;;7.78;91.60;102386.09;5059031;28;1125;-72
2023/05/17 02:20:52;;;;;;;;;;;;;;;7.82;91.72;102381.66;5069685;28;1131;-74
2023/05/17 02:23:18;;;;;;;;;;;;;;;7.83;91.88;102384.16;5066380;28;1901;-72
2023/05/17 02:25:43;;;;;;;;;;;;;;;7.85;92.15;102392.66;5043917;28;1403;-72
2023/05/17 02:28:08;;;;;;;;;;;;;;;7.84;92.32;102398.72;5055829;28;1094;-73
2023/05/17 02:30:34;;;;;;;;;;;;;;;7.87;92.96;102396.03;5058055;28;1167;-71
2023/05/17 02:32:59;;;;;;;;;;;;;;;7.87;92.62;102390.84;5062811;28;1144;-73
2023/05/17 02:35:24;;;;;;;;;;;;;;;7.88;92.71;102397.69;5041732;28;1307;-72
2023/05/17 02:37:50;;;;;;;;;;;;;;;7.91;92.72;102401.88;5056575;28;1184;-72
2023/05/17 02:40:16;;;;;;;;;;;;;;;7.94;93.02;102407.75;5061896;28;1072;-72
2023/05/17 02:42:41;;;;;;;;;;;;;;;7.94;92.88;102394.84;5066518;28;1124;-73
2023/05/17 02:45:06;;;;;;;;;;;;;;;7.99;92.66;102395.47;5055732;28;1990;-73
2023/05/17 02:47:31;;;;;;;;;;;;;;;8.01;92.80;102397.97;5063134;28;1130;-72
2023/05/17 02:49:57;;;;;;;;;;;;;;;8.03;93.12;102396.19;5067371;28;1092;-72
2023/05/17 02:52:22;;;;;;;;;;;;;;;8.03;93.18;102400.47;5066491;28;1156;-73
2023/05/17 02:54:47;;;;;;;;;;;;;;;8.03;93.30;102405.66;5061132;28;1161;-72
2023/05/17 02:57:12;;;;;;;;;;;;;;;8.08;93.05;102398.53;5058574;28;1165;-72
2023/05/17 02:59:38;;;;;;;;;;;;;;;7.99;93.74;102405.81;5065255;28;1262;-72
2023/05/17 03:02:03;;;;;;;;;;;;;;;8.03;93.53;102408.22;5066194;28;1205;-73
2023/05/17 03:04:28;;;;;;;;;;;;;;;8.00;94.02;102406.63;5044823;28;1954;-73
2023/05/17 03:06:54;;;;;;;;;;;;;;;8.03;93.87;102408.22;5064759;28;1101;-72
2023/05/17 03:09:19;;;;;;;;;;;;;;;8.03;94.28;102409.09;5068301;28;1324;-72
2023/05/17 03:11:45;;;;;;;;;;;;;;;8.02;94.96;102420.31;5061005;28;1096;-73
2023/05/17 03:14:10;;;;;;;;;;;;;;;8.03;94.45;102410.81;5067052;28;1152;-71
2023/05/17 03:16:35;;;;;;;;;;;;;;;8.03;94.26;102421.16;5062842;28;1096;-73
2023/05/17 03:19:00;;;;;;;;;;;;;;;8.04;94.87;102417.69;5039031;28;1311;-72
2023/05/17 03:21:26;;;;;;;;;;;;;;;8.04;94.31;102422.84;5048280;28;1192;-72
2023/05/17 03:23:51;;;;;;;;;;;;;;;8.03;93.97;102434.06;5067995;28;1902;-72
2023/05/17 03:26:18;;;;;;;;;;;;;;;8.05;93.90;102429.69;5064839;28;1021;-72
2023/05/17 03:28:43;;;;;;;;;;;;;;;8.03;94.52;102427.19;5066872;28;1169;-72
2023/05/17 03:31:09;;;;;;;;;;;;;;;8.03;94.19;102434.94;5049011;28;2384;-72
2023/05/17 03:33:34;;;;;;;;;;;;;;;8.01;94.08;102438.47;5068331;28;1148;-73
2023/05/17 03:35:59;;;;;;;;;;;;;;;8.01;94.16;102439.31;5060166;28;1082;-72
2023/05/17 03:38:25;;;;;;;;;;;;;;;7.98;96.11;102444.63;5056664;28;1204;-72
2023/05/17 03:40:50;;;;;;;;;;;;;;;7.94;95.22;102441.34;5062613;28;1240;-72
2023/05/17 03:43:15;;;;;;;;;;;;;;;7.95;94.85;102450.75;5061795;28;1902;-72
2023/05/17 03:45:41;;;;;;;;;;;;;;;7.93;95.18;102452.59;5058483;28;1013;-72
2023/05/17 03:48:06;;;;;;;;;;;;;;;7.92;95.55;102450.91;5066649;28;1262;-72
2023/05/17 03:50:31;;;;;;;;;;;;;;;7.87;95.61;102452.03;5064491;28;1109;-73
2023/05/17 03:52:57;;;;;;;;;;;;;;;7.86;95.18;102456.34;5060618;28;1161;-73
2023/05/17 03:55:22;;;;;;;;;;;;;;;7.83;95.64;102456.47;5048624;28;1434;-72
2023/05/17 03:57:47;;;;;;;;;;;;;;;7.82;95.42;102459.97;5058637;28;1124;-72
2023/05/17 04:00:13;;;;;;;;;;;;;;;7.83;95.96;102451.31;5061891;28;1168;-72
2023/05/17 04:02:38;;;;;;;;;;;;;;;7.87;95.61;102458.03;5068092;28;1077;-72
2023/05/17 04:05:04;;;;;;;;;;;;;;;7.90;96.60;102463.03;5062290;28;1973;-71
2023/05/17 04:07:29;;;;;;;;;;;;;;;7.93;95.45;102462.91;5066293;28;1153;-72
2023/05/17 04:09:58;;;;;;;;;;;;;;;7.92;95.83;102466.41;5066869;28;1180;-72
2023/05/17 04:12:23;;;;;;;;;;;;;;;7.94;96.31;102480.09;5064104;28;1106;-71
2023/05/17 04:14:48;;;;;;;;;;;;;;;7.95;96.36;102481.75;5054648;28;1224;-72
2023/05/17 04:17:13;;;;;;;;;;;;;;;7.96;97.09;102477.44;5044177;28;1419;-71
2023/05/17 04:19:39;;;;;;;;;;;;;;;7.97;96.77;102474.81;5068365;28;1120;-72
2023/05/17 04:22:04;;;;;;;;;;;;;;;7.94;97.51;102480.09;5061839;28;1206;-71
2023/05/17 04:24:29;;;;;;;;;;;;;;;7.95;97.46;102479.19;5064545;28;1964;-72
2023/05/17 04:26:55;;;;;;;;;;;;;;;7.95;97.95;102481.75;5036175;28;1592;-72
2023/05/17 04:29:20;;;;;;;;;;;;;;;7.97;97.83;102485.13;5066875;28;1088;-72
2023/05/17 04:31:47;;;;;;;;;;;;;;;7.96;97.46;102488.59;5056890;28;1286;-71
2023/05/17 04:34:13;;;;;;;;;;;;;;;8.01;97.09;102495.31;5060706;28;1089;-70
2023/05/17 04:36:38;;;;;;;;;;;;;;;8.01;99.56;102506.50;5060867;28;1072;-72
2023/05/17 04:39:03;;;;;;;;;;;;;;;8.02;99.29;102499.59;5036524;28;1338;-71
2023/05/17 04:41:30;;;;;;;;;;;;;;;8.03;98.17;102503.84;5065466;28;1189;-72
2023/05/17 04:43:55;;;;;;;;;;;;;;;8.06;98.18;102503.72;5066195;28;1918;-71
2023/05/17 04:46:20;;;;;;;;;;;;;;;8.07;98.00;102515.72;5060664;28;1028;-71
2023/05/17 04:48:45;;;;;;;;;;;;;;;8.07;98.12;102515.72;5067570;28;1262;-72
2023/05/17 04:51:11;;;;;;;;;;;;;;;8.08;99.17;102517.41;5066264;28;1249;-72
2023/05/17 04:53:36;;;;;;;;;;;;;;;8.11;98.31;102528.44;5065768;28;2784;-71
2023/05/17 04:56:02;;;;;;;;;;;;;;;8.14;97.86;102519.72;5066756;28;1079;-72
2023/05/17 04:58:28;;;;;;;;;;;;;;;8.16;98.62;102526.50;5044083;28;1118;-74
2023/05/17 05:00:53;;;;;;;;;;;;;;;8.17;99.52;102524.75;5061927;28;1396;-71
2023/05/17 05:03:18;;;;;;;;;;;;;;;8.17;100.00;102522.19;5051727;28;1889;-71
2023/05/17 05:05:44;;;;;;;;;;;;;;;8.19;100.00;102525.50;5061057;28;1563;-71
2023/05/17 05:08:09;;;;;;;;;;;;;;;8.20;99.40;102532.34;5041845;28;1231;-71
2023/05/17 05:10:35;;;;;;;;;;;;;;;8.23;100.00;102537.41;5058104;28;1342;-71
2023/05/17 05:13:00;;;;;;;;;;;;;;;8.23;100.00;102538.25;5042147;28;1343;-71
2023/05/17 05:15:25;;;;;;;;;;;;;;;8.26;99.30;102547.63;5054940;28;1491;-71
2023/05/17 05:17:51;;;;;;;;;;;;;;;8.27;100.00;102554.47;5059654;28;1094;-72
2023/05/17 05:20:16;;;;;;;;;;;;;;;8.31;100.00;102549.97;5056960;28;1169;-72
2023/05/17 05:22:41;;;;;;;;;;;;;;;8.32;99.79;102552.53;5064696;28;1522;-71
2023/05/17 05:25:06;;;;;;;;;;;;;;;8.35;98.66;102562.72;5066282;28;1965;-71
2023/05/17 05:27:34;;;;;;;;;;;;;;;8.38;100.00;102562.63;5063208;28;1082;-72
2023/05/17 05:29:59;;;;;;;;;;;;;;;8.40;99.51;102565.13;5060711;28;1231;-71
2023/05/17 05:32:24;;;;;;;;;;;;;;;8.43;99.33;102571.00;5063476;28;1178;-72
2023/05/17 05:34:49;;;;;;;;;;;;;;;8.47;98.55;102571.69;5066832;28;1141;-71
2023/05/17 05:37:15;;;;;;;;;;;;;;;8.50;99.02;102572.41;5063187;28;1337;-71
2023/05/17 05:39:40;;;;;;;;;;;;;;;8.55;98.45;102576.53;5049568;28;1279;-72
2023/05/17 05:42:05;;;;;;;;;;;;;;;8.60;98.27;102582.31;5054798;28;1166;-71
2023/05/17 05:44:30;;;;;;;;;;;;;;;8.65;98.10;102585.53;5065918;28;1898;-72
2023/05/17 05:46:56;;;;;;;;;;;;;;;8.69;97.92;102581.91;5065108;28;1009;-73
2023/05/17 05:49:21;;;;;;;;;;;;;;;8.75;97.58;102577.31;5062340;28;983;-72
2023/05/17 05:51:46;;;;;;;;;;;;;;;8.81;96.85;102586.53;5059935;28;1250;-73
2023/05/17 05:54:12;;;;;;;;;;;;;;;8.85;95.09;102588.06;5066415;28;991;-72
2023/05/17 05:56:37;;;;;;;;;;;;;;;8.89;93.55;102597.38;5060808;28;1355;-73
2023/05/17 05:59:02;;;;;;;;;;;;;;;8.94;94.43;102597.97;5059958;28;1065;-73
2023/05/17 06:01:28;;;;;;;;;;;;;;;8.99;94.17;102601.19;5066826;28;1214;-74
2023/05/17 06:03:53;;;;;;;;;;;;;;;9.05;93.85;102600.91;5046073;28;1898;-75
2023/05/17 06:06:18;;;;;;;;;;;;;;;9.11;92.50;102604.13;5063775;28;1383;-73
2023/05/17 06:08:46;;;;;;;;;;;;;;;9.17;92.85;102603.84;5063788;28;1149;-74
2023/05/17 06:11:11;;;;;;;;;;;;;;;9.23;91.95;102608.72;5043919;28;1382;-73
2023/05/17 06:13:36;;;;;;;;;;;;;;;9.28;92.27;102606.75;5071278;28;1186;-74
2023/05/17 06:16:01;;;;;;;;;;;;;;;9.35;92.69;102607.31;5049109;28;1346;-74
2023/05/17 06:18:26;;;;;;;;;;;;;;;9.39;89.78;102612.25;5062716;28;1187;-73
2023/05/17 06:20:52;;;;;;;;;;;;;;;9.43;90.26;102606.03;5069030;28;938;-74
2023/05/17 06:23:17;;;;;;;;;;;;;;;9.45;89.08;102614.56;5068809;28;1910;-74
2023/05/17 06:25:42;;;;;;;;;;;;;;;9.50;89.74;102617.75;5050904;28;1258;-75
2023/05/17 06:28:08;;;;;;;;;;;;;;;9.56;88.59;102622.66;5066241;28;1106;-74
2023/05/17 06:30:33;;;;;;;;;;;;;;;9.63;89.63;102611.97;5068357;28;1084;-73
2023/05/17 06:32:58;;;;;;;;;;;;;;;9.69;88.84;102625.50;5065915;28;1101;-73
2023/05/17 06:35:24;;;;;;;;;;;;;;;9.76;87.87;102628.63;5067088;28;1149;-75
2023/05/17 06:37:49;;;;;;;;;;;;;;;9.82;86.31;102623.13;5060406;28;1095;-75
2023/05/17 06:40:14;;;;;;;;;;;;;;;9.88;84.85;102627.19;5050351;28;1331;-74
2023/05/17 06:42:39;;;;;;;;;;;;;;;9.90;84.15;102628.75;5065543;28;1106;-73
2023/05/17 06:45:05;;;;;;;;;;;;;;;9.94;84.48;102627.72;5068364;28;1965;-73
2023/05/17 06:47:30;;;;;;;;;;;;;;;10.01;85.49;102628.22;5066207;28;1104;-74
2023/05/17 06:49:55;;;;;;;;;;;;;;;10.06;82.12;102632.28;5062625;28;1310;-75
2023/05/17 06:52:21;;;;;;;;;;;;;;;10.09;82.52;102632.13;5069699;28;1552;-74
2023/05/17 06:54:46;;;;;;;;;;;;;;;10.07;79.95;102633.94;5050320;28;1152;-74
2023/05/17 06:57:11;;;;;;;;;;;;;;;10.05;79.88;102638.38;5068956;28;1092;-75
2023/05/17 06:59:36;;;;;;;;;;;;;;;10.09;79.88;102646.81;5067296;28;1142;-74
2023/05/17 07:02:02;;;;;;;;;;;;;;;10.08;79.16;102645.97;5064811;28;1265;-74
2023/05/17 07:04:27;;;;;;;;;;;;;;;10.08;79.86;102640.78;5068854;28;1955;-73
2023/05/17 07:06:52;;;;;;;;;;;;;;;10.10;80.83;102644.16;5062137;28;976;-74
2023/05/17 07:09:19;;;;;;;;;;;;;;;10.13;80.70;102644.91;5047876;28;1327;-73
2023/05/17 07:11:44;;;;;;;;;;;;;;;10.14;79.45;102644.00;5045960;28;1189;-73
2023/05/17 07:14:09;;;;;;;;;;;;;;;10.18;79.02;102645.53;5061599;28;1088;-74
2023/05/17 07:16:34;;;;;;;;;;;;;;;10.24;77.36;102666.00;5050368;28;1259;-74
2023/05/17 07:19:00;;;;;;;;;;;;;;;10.32;77.27;102648.28;5068291;28;1164;-74
2023/05/17 07:21:25;;;;;;;;;;;;;;;10.35;74.73;102656.75;5059748;28;1334;-75
2023/05/17 07:23:50;;;;;;;;;;;;;;;10.33;74.45;102660.34;5061811;28;1910;-74
2023/05/17 07:26:19;;;;;;;;;;;;;;;10.39;77.45;102660.03;5050306;28;1168;-75
2023/05/17 07:28:44;;;;;;;;;;;;;;;10.46;76.64;102653.59;5039550;28;1228;-75
2023/05/17 07:31:09;;;;;;;;;;;;;;;10.57;76.36;102658.25;5060435;28;1117;-74
2023/05/17 07:33:35;;;;;;;;;;;;;;;10.61;75.15;102665.78;5045261;28;1207;-75
2023/05/17 07:36:01;;;;;;;;;;;;;;;10.60;75.19;102664.09;5059062;28;1081;-74
2023/05/17 07:38:26;;;;;;;;;;;;;;;10.62;75.84;102667.47;5065889;28;1616;-74
2023/05/17 07:40:51;;;;;;;;;;;;;;;10.68;75.50;102670.66;5045550;28;1255;-77
2023/05/17 07:43:16;;;;;;;;;;;;;;;10.67;73.81;102674.16;5065798;28;1910;-75
2023/05/17 07:45:42;;;;;;;;;;;;;;;10.62;73.55;102677.84;5066181;28;1060;-73
2023/05/17 07:48:07;;;;;;;;;;;;;;;10.51;71.53;102674.97;5063028;28;1135;-74
2023/05/17 07:50:33;;;;;;;;;;;;;;;10.47;72.14;102673.44;5069369;28;1186;-74
2023/05/17 07:52:58;;;;;;;;;;;;;;;10.41;72.76;102678.09;5060424;28;1006;-73
2023/05/17 07:55:23;;;;;;;;;;;;;;;10.39;73.76;102685.13;5064348;28;922;-74
2023/05/17 07:57:48;;;;;;;;;;;;;;;10.48;73.17;102685.47;5057436;28;1174;-75
2023/05/17 08:00:14;;;;;;;;;;;;;;;10.44;71.36;102683.97;5063127;28;1123;-74
2023/05/17 08:02:39;;;;;;;;;;;;;;;10.46;69.75;102682.16;5062263;28;1018;-75
2023/05/17 08:05:05;;;;;;;;;;;;;;;10.49;71.56;102684.56;5058691;28;1890;-74
2023/05/17 08:07:30;;;;;;;;;;;;;;;10.54;72.17;102684.31;5053157;28;1141;-74
2023/05/17 08:09:56;;;;;;;;;;;;;;;10.60;71.29;102684.84;5058074;28;1049;-74
2023/05/17 08:12:21;;;;;;;;;;;;;;;10.64;71.11;102685.53;5065223;28;1093;-74
2023/05/17 08:14:46;;;;;;;;;;;;;;;10.70;69.22;102689.56;5068102;28;1145;-75
2023/05/17 08:17:11;;;;;;;;;;;;;;;10.81;71.34;102682.06;5068113;28;1124;-74
2023/05/17 08:19:37;;;;;;;;;;;;;;;10.89;68.20;102685.91;5065593;28;1066;-75
2023/05/17 08:22:03;;;;;;;;;;;;;;;10.91;67.52;102698.81;5063257;28;1267;-74
2023/05/17 08:24:28;;;;;;;;;;;;;;;10.87;66.82;102692.94;5066564;28;1886;-75
2023/05/17 08:26:53;;;;;;;;;;;;;;;10.94;67.75;102697.81;5057902;28;1564;-75
2023/05/17 08:29:18;;;;;;;;;;;;;;;11.10;68.87;102694.31;5059286;28;1463;-74
2023/05/17 08:31:44;;;;;;;;;;;;;;;11.21;66.87;102696.34;5062306;28;1319;-74
2023/05/17 08:34:09;;;;;;;;;;;;;;;11.24;67.40;102697.91;5037988;28;1362;-76
2023/05/17 08:36:34;;;;;;;;;;;;;;;11.31;66.96;102688.88;5039949;28;1231;-75
2023/05/17 08:38:59;;;;;;;;;;;;;;;11.41;67.62;102682.25;5048341;28;1184;-75
2023/05/17 08:41:25;;;;;;;;;;;;;;;11.56;66.57;102681.41;5042680;28;1326;-74
2023/05/17 08:43:50;;;;;;;;;;;;;;;11.70;68.55;102693.63;5057291;28;1898;-76
2023/05/17 08:46:20;;;;;;;;;;;;;;;11.81;64.48;102690.41;5046348;28;1366;-74
2023/05/17 08:48:45;;;;;;;;;;;;;;;11.92;65.77;102691.50;5048962;28;1412;-74
2023/05/17 08:51:10;;;;;;;;;;;;;;;11.86;64.28;102693.63;5064653;28;1495;-74
2023/05/17 08:53:36;;;;;;;;;;;;;;;11.81;64.58;102695.59;5058429;28;1086;-75
2023/05/17 08:56:03;;;;;;;;;;;;;;;11.64;62.73;102694.81;5064608;28;1144;-74
2023/05/17 08:58:32;;;;;;;;;;;;;;;11.53;62.42;102702.38;5057601;28;1124;-76
2023/05/17 09:00:58;;;;;;;;;;;;;;;11.56;60.97;102707.38;5066561;28;1171;-75
2023/05/17 09:03:24;;;;;;;;;;;;;;;11.73;65.20;102697.81;5039392;28;1898;-76
2023/05/17 09:05:52;;;;;;;;;;;;;;;11.86;64.14;102701.41;5059562;28;1321;-76
2023/05/17 09:08:21;;;;;;;;;;;;;;;12.02;62.89;102699.63;5045990;28;1208;-75
2023/05/17 09:10:46;;;;;;;;;;;;;;;12.09;61.35;102700.91;5042380;28;1388;-75
2023/05/17 09:13:11;;;;;;;;;;;;;;;12.06;61.23;102705.47;5057219;28;1157;-74
2023/05/17 09:15:37;;;;;;;;;;;;;;;12.05;63.70;102706.41;5066954;28;895;-77
2023/05/17 09:18:02;;;;;;;;;;;;;;;12.01;61.29;102713.53;5041275;28;1357;-75
2023/05/17 09:20:35;;;;;;;;;;;;;;;11.98;60.48;102708.50;5042384;28;1594;-74
2023/05/17 09:23:01;;;;;;;;;;;;;;;11.94;58.86;102712.22;5045795;28;1224;-75
2023/05/17 09:25:27;;;;;;;;;;;;;;;11.89;60.01;102709.06;5057672;28;1890;-75
2023/05/17 09:27:53;;;;;;;;;;;;;;;11.87;61.72;102705.69;5056111;28;1370;-76
2023/05/17 09:30:18;;;;;;;;;;;;;;;12.00;63.48;102711.88;5057450;28;1233;-75
2023/05/17 09:32:44;;;;;;;;;;;;;;;12.20;62.45;102708.94;5048600;28;1228;-75
2023/05/17 09:35:10;;;;;;;;;;;;;;;12.45;62.60;102697.94;5065852;28;1084;-75
2023/05/17 09:37:36;;;;;;;;;;;;;;;12.50;61.05;102705.44;5065640;28;1100;-75
2023/05/17 09:40:02;;;;;;;;;;;;;;;12.52;59.23;102703.63;5060011;28;1311;-75
2023/05/17 09:42:28;;;;;;;;;;;;;;;12.39;59.70;102710.50;5067150;28;1048;-73
2023/05/17 09:44:56;;;;;;;;;;;;;;;12.29;60.59;102709.34;5062707;28;1972;-75
2023/05/17 09:47:25;;;;;;;;;;;;;;;12.23;61.01;102713.16;5053529;28;1287;-74
2023/05/17 09:49:50;;;;;;;;;;;;;;;12.23;61.44;102710.53;5034417;28;1354;-74
2023/05/17 09:52:19;;;;;;;;;;;;;;;12.23;59.21;102713.97;5068822;28;1144;-76
2023/05/17 09:54:55;;;;;;;;;;;;;;;12.26;59.08;102718.16;5063698;28;1250;-74
2023/05/17 09:57:21;;;;;;;;;;;;;;;12.23;61.43;102708.78;5059442;28;1162;-75
2023/05/17 09:59:47;;;;;;;;;;;;;;;12.28;61.01;102700.72;5058149;28;1138;-75
2023/05/17 10:02:20;;;;;;;;;;;;;;;12.46;63.17;102715.22;5064745;28;1158;-75
2023/05/17 10:04:48;;;;;;;;;;;;;;;12.69;62.29;102711.25;5059968;28;1926;-75
2023/05/17 10:07:14;;;;;;;;;;;;;;;12.81;61.34;102704.47;5065653;28;1080;-75
2023/05/17 10:09:41;;;;;;;;;;;;;;;12.95;60.71;102711.41;5053460;28;1199;-76
2023/05/17 10:12:09;;;;;;;;;;;;;;;13.10;58.35;102707.88;5063335;28;1128;-75
2023/05/17 10:14:35;;;;;;;;;;;;;;;13.11;58.52;102717.34;5061097;28;1037;-75
2023/05/17 10:17:01;;;;;;;;;;;;;;;13.09;58.55;102714.03;5043169;28;1368;-75
2023/05/17 10:19:27;;;;;;;;;;;;;;;13.20;57.05;102716.78;5049627;28;1198;-75
2023/05/17 10:21:53;;;;;;;;;;;;;;;13.28;57.02;102719.78;5069655;28;1236;-75
2023/05/17 10:24:22;;;;;;;;;;;;;;;13.38;59.74;102719.22;5061196;28;1991;-75
2023/05/17 10:26:51;;;;;;;;;;;;;;;13.41;58.30;102719.00;5053868;28;1153;-75
2023/05/17 10:29:17;;;;;;;;;;;;;;;13.28;57.06;102729.38;5058212;28;1236;-75
2023/05/17 10:31:42;;;;;;;;;;;;;;;13.20;59.13;102722.00;5054745;28;1396;-75
2023/05/17 10:34:08;;;;;;;;;;;;;;;13.32;58.00;102711.78;5046671;28;1185;-75
2023/05/17 10:36:34;;;;;;;;;;;;;;;13.40;58.27;102712.13;5064099;28;1116;-75
2023/05/17 10:38:59;;;;;;;;;;;;;;;13.45;57.76;102710.06;5065356;28;1351;-75
2023/05/17 10:41:26;;;;;;;;;;;;;;;13.50;57.03;102715.81;5061763;28;1259;-76
2023/05/17 10:43:52;;;;;;;;;;;;;;;13.52;54.29;102719.16;5066257;28;1905;-75
2023/05/17 10:46:21;;;;;;;;;;;;;;;13.51;53.07;102717.47;5068335;28;1326;-75
2023/05/17 10:48:47;;;;;;;;;;;;;;;13.52;54.65;102711.34;5063095;28;1126;-76
2023/05/17 10:51:13;;;;;;;;;;;;;;;13.62;54.38;102707.22;5054885;28;1246;-76
2023/05/17 10:53:56;;;;;;;;;;;;;;;13.64;55.00;102712.31;5060008;28;1149;-75
2023/05/17 10:56:22;;;;;;;;;;;;;;;13.64;54.96;102697.50;5068582;28;1119;-75
2023/05/17 10:58:47;;;;;;;;;;;;;;;13.63;55.52;102703.66;5065776;28;1212;-75
2023/05/17 11:01:32;;;;;;;;;;;;;;;13.60;53.98;102703.88;5062611;28;1333;-75
2023/05/17 11:04:18;;;;;;;;;;;;;;;13.57;55.13;102704.06;5069235;28;1898;-75
2023/05/17 11:06:44;;;;;;;;;;;;;;;13.65;54.91;102700.94;5045593;28;1375;-74
2023/05/17 11:09:15;;;;;;;;;;;;;;;13.69;55.34;102708.47;5062300;28;1095;-75
2023/05/17 11:11:59;;;;;;;;;;;;;;;13.69;53.89;102703.25;5059807;28;1286;-76
2023/05/17 11:14:25;;;;;;;;;;;;;;;13.69;52.59;102702.44;5061642;28;1211;-76
2023/05/17 11:16:55;;;;;;;;;;;;;;;13.73;54.08;102699.53;5068718;28;1094;-75
2023/05/17 11:19:20;;;;;;;;;;;;;;;13.80;52.91;102700.78;5069501;28;1081;-76
2023/05/17 11:21:46;;;;;;;;;;;;;;;13.89;53.66;102698.53;5068336;28;1145;-75
2023/05/17 11:24:14;;;;;;;;;;;;;;;13.88;54.47;102702.06;5065560;28;1902;-75
2023/05/17 11:26:43;;;;;;;;;;;;;;;13.90;52.01;102705.41;5043697;28;1300;-75
2023/05/17 11:29:09;;;;;;;;;;;;;;;13.95;52.56;102698.13;5062823;28;1073;-74
2023/05/17 11:31:35;;;;;;;;;;;;;;;13.98;51.08;102706.56;5042385;28;1433;-72
2023/05/17 11:34:04;;;;;;;;;;;;;;;13.97;51.97;102698.84;5058597;28;1084;-73
2023/05/17 11:36:30;;;;;;;;;;;;;;;14.06;52.16;102706.09;5058516;28;1495;-73
2023/05/17 11:39:11;;;;;;;;;;;;;;;14.05;50.62;102714.84;5066263;28;1603;-73
2023/05/17 11:41:46;;;;;;;;;;;;;;;14.04;52.07;102714.00;5041982;28;1137;-72
2023/05/17 11:44:12;;;;;;;;;;;;;;;14.13;50.08;102701.28;5059722;28;1910;-72
2023/05/17 11:46:38;;;;;;;;;;;;;;;13.94;50.60;102706.91;5064789;28;1494;-72
2023/05/17 11:49:05;;;;;;;;;;;;;;;13.96;49.89;102705.00;5063631;28;1187;-72
2023/05/17 11:51:31;;;;;;;;;;;;;;;14.01;49.86;102710.75;5059206;28;1095;-72
2023/05/17 11:53:56;;;;;;;;;;;;;;;14.07;50.72;102707.75;5056715;28;1469;-75
2023/05/17 11:56:22;;;;;;;;;;;;;;;14.04;49.95;102702.72;5065975;28;1095;-72
2023/05/17 11:58:50;;;;;;;;;;;;;;;14.09;49.68;102705.84;5056860;23;1563;-73
2023/05/17 12:01:15;;;;;;;;;;;;;;;14.02;47.91;102699.38;5043510;28;1333;-73
2023/05/17 12:03:41;;;;;;;;;;;;;;;14.06;50.33;102706.09;5043704;28;1985;-72
2023/05/17 12:06:16;;;;;;;;;;;;;;;14.04;49.13;102718.38;5045600;28;1205;-72
2023/05/17 12:08:45;;;;;;;;;;;;;;;14.07;49.85;102720.78;5020383;28;1472;-74
2023/05/17 12:11:11;;;;;;;;;;;;;;;14.04;48.16;102718.38;5039572;28;1407;-72
2023/05/17 12:13:37;;;;;;;;;;;;;;;14.06;47.26;102713.91;5039360;28;1020;-72
2023/05/17 12:16:06;;;;;;;;;;;;;;;14.10;48.36;102707.53;5040396;28;1483;-73
2023/05/17 12:18:38;;;;;;;;;;;;;;;14.03;48.16;102701.88;5022952;28;1359;-72
2023/05/17 12:21:03;;;;;;;;;;;;;;;14.01;48.62;102705.53;5040006;28;1424;-72
2023/05/17 12:23:40;;;;;;;;;;;;;;;13.98;50.19;102703.13;5041520;28;1910;-72
2023/05/17 12:26:05;;;;;;;;;;;;;;;14.00;48.44;102703.88;5045571;28;1380;-73
2023/05/17 12:28:30;;;;;;;;;;;;;;;14.06;48.39;102695.66;5028537;28;1274;-73
2023/05/17 12:31:01;;;;;;;;;;;;;;;14.14;51.30;102695.97;5045451;28;1326;-72
2023/05/17 12:33:28;;;;;;;;;;;;;;;14.22;47.12;102701.53;5025359;28;1286;-73
2023/05/17 12:35:54;;;;;;;;;;;;;;;14.28;49.12;102701.09;5044523;28;1513;-72
2023/05/17 12:38:19;;;;;;;;;;;;;;;14.25;46.80;102696.06;5029397;28;1310;-73
2023/05/17 12:40:44;;;;;;;;;;;;;;;14.26;46.44;102702.97;5042125;28;1503;-72
2023/05/17 12:43:10;;;;;;;;;;;;;;;14.20;47.79;102700.75;5042385;28;1557;-72
2023/05/17 12:45:35;;;;;;;;;;;;;;;14.24;48.74;102699.63;5044262;28;1890;-73
2023/05/17 12:48:00;;;;;;;;;;;;;;;14.24;48.60;102694.41;5038630;28;1187;-71